Dixon, CA

10:34 AM PDT on August 29, 2015 (GMT -0700)
Casa Grande 2 | | Change Station
CLOSE
Current Station
Personal Weather Station
Location: Vacaville, CA
Elevation: 85 ft
Nearby Weather Stations

Elev 85 ft 38.38 °N, 121.93 °W | Updated 32 seconds ago

Overcast
Overcast
71.4 °F
Feels Like 71.4 °F
N
3.1
Wind Variable Wind from West
Gusts 3.1 mph

Today
High -- | Low -- °F
--% Chance of Precip.
Yesterday
High -- | Low -- °F
Precip. -- in
6:33 AM 7:41 PM
Full, 100% visible
Pressure 29.97 in
Visibility 10.0 miles
Clouds Few 2900 ft
Overcast 4100 ft
Dew Point 71 °F
Humidity 99%
Rainfall 0.00 in
Snow Depth Not available.
UV 2 out of 12
Pollen 8.20 out of 12
Air Quality Not available.
Flu Activity Not available.
METAR KEDU 291715Z AUTO 20012KT 10SM FEW029 OVC041 22/17 A2997 RMK AO1
Pressure 29.97 in
Visibility 10.0 miles
Clouds Few 2900 ft
Overcast 4100 ft
Dew Point 71 °F
Humidity 99%
Rainfall 0.00 in
Snow Depth Not available.
UV 2 out of 12
Pollen 8.20 out of 12
Air Quality Not available.
Flu Activity Not available.
METAR KEDU 291715Z AUTO 20012KT 10SM FEW029 OVC041 22/17 A2997 RMK AO1

10-Day Weather Forecast

×

Almanac

Astronomy

Aug. 29, 2015 Rise Set
Actual Time
Civil Twilight
Nautical Twilight
Astronomical Twilight
Moon
Length of Visible Light
Length of Day
Tomorrow will be .
, % of the Moon is Illuminated

Today's Extremes

State Highs State Lows

Community

WunderPhotos

Upload Photos

1,850,735 photos uploaded!

WunderBlogs® & News

Nearby

Air Quality

  Air Quality AQ Index Pollutant
Not available.

Snow Depth

Station Depth Elevation

Earthquake Activity

City Distance Mag. Time & Date
Minimum magnitude displayed is 2.5.

Coastal Water Temperatures

Place Temperature

Stations

Nearby Weather Stations

Station Location Temp. Windchill Dew Point Humidity Wind Precip. Elev Updated Type